sensor_id;sensor_type;location;lat;lon;timestamp;temperature;humidity
20915;DHT22;10617;52.032;5.298;2023-05-10T00:00:13;14.00;99.90
20915;DHT22;10617;52.032;5.298;2023-05-10T00:04:14;14.10;99.90
20915;DHT22;10617;52.032;5.298;2023-05-10T00:08:16;14.00;99.90
20915;DHT22;10617;52.032;5.298;2023-05-10T00:12:18;14.10;99.90
20915;DHT22;10617;52.032;5.298;2023-05-10T00:16:20;14.00;99.90
20915;DHT22;10617;52.032;5.298;2023-05-10T00:20:21;14.00;99.90
20915;DHT22;10617;52.032;5.298;2023-05-10T00:24:23;14.00;99.90
20915;DHT22;10617;52.032;5.298;2023-05-10T00:28:25;14.00;99.90
20915;DHT22;10617;52.032;5.298;2023-05-10T00:32:28;14.00;99.90
20915;DHT22;10617;52.032;5.298;2023-05-10T00:36:30;14.00;99.90
20915;DHT22;10617;52.032;5.298;2023-05-10T00:40:32;14.00;99.90
20915;DHT22;10617;52.032;5.298;2023-05-10T00:44:34;14.00;99.90
20915;DHT22;10617;52.032;5.298;2023-05-10T00:48:36;13.90;99.90
20915;DHT22;10617;52.032;5.298;2023-05-10T00:52:37;13.90;99.90
20915;DHT22;10617;52.032;5.298;2023-05-10T00:56:39;13.90;99.90
20915;DHT22;10617;52.032;5.298;2023-05-10T01:00:41;13.90;99.90
20915;DHT22;10617;52.032;5.298;2023-05-10T01:04:44;13.90;99.90
20915;DHT22;10617;52.032;5.298;2023-05-10T01:08:46;13.90;99.90
20915;DHT22;10617;52.032;5.298;2023-05-10T01:12:48;13.90;99.90
20915;DHT22;10617;52.032;5.298;2023-05-10T01:16:50;13.90;99.90
20915;DHT22;10617;52.032;5.298;2023-05-10T01:20:55;13.80;99.90
20915;DHT22;10617;52.032;5.298;2023-05-10T01:37:13;13.80;99.90
20915;DHT22;10617;52.032;5.298;2023-05-10T01:49:23;13.80;99.90
20915;DHT22;10617;52.032;5.298;2023-05-10T01:53:25;13.80;99.90
20915;DHT22;10617;52.032;5.298;2023-05-10T01:57:27;13.70;99.90
20915;DHT22;10617;52.032;5.298;2023-05-10T02:01:31;13.60;99.90
20915;DHT22;10617;52.032;5.298;2023-05-10T02:05:34;13.50;99.90
20915;DHT22;10617;52.032;5.298;2023-05-10T02:09:37;13.50;99.90
20915;DHT22;10617;52.032;5.298;2023-05-10T02:13:39;13.50;99.90
20915;DHT22;10617;52.032;5.298;2023-05-10T02:17:41;13.50;99.90
20915;DHT22;10617;52.032;5.298;2023-05-10T02:21:43;13.40;99.90
20915;DHT22;10617;52.032;5.298;2023-05-10T02:25:47;13.30;99.90
20915;DHT22;10617;52.032;5.298;2023-05-10T02:29:49;13.30;99.90
20915;DHT22;10617;52.032;5.298;2023-05-10T02:33:51;13.30;99.90
20915;DHT22;10617;52.032;5.298;2023-05-10T02:37:54;13.30;99.90
20915;DHT22;10617;52.032;5.298;2023-05-10T02:41:57;13.20;99.90
20915;DHT22;10617;52.032;5.298;2023-05-10T02:45:59;13.20;99.90
20915;DHT22;10617;52.032;5.298;2023-05-10T02:50:01;13.20;99.90
20915;DHT22;10617;52.032;5.298;2023-05-10T02:54:15;13.20;99.90
20915;DHT22;10617;52.032;5.298;2023-05-10T02:58:19;13.10;99.90
20915;DHT22;10617;52.032;5.298;2023-05-10T03:02:22;13.10;99.90
20915;DHT22;10617;52.032;5.298;2023-05-10T03:06:23;13.10;99.90
20915;DHT22;10617;52.032;5.298;2023-05-10T03:10:27;13.10;99.90
20915;DHT22;10617;52.032;5.298;2023-05-10T03:23:01;13.20;99.90
20915;DHT22;10617;52.032;5.298;2023-05-10T03:27:03;13.20;99.90
20915;DHT22;10617;52.032;5.298;2023-05-10T03:31:05;13.20;99.90
20915;DHT22;10617;52.032;5.298;2023-05-10T03:35:08;13.20;99.90
20915;DHT22;10617;52.032;5.298;2023-05-10T03:39:10;13.20;99.90
20915;DHT22;10617;52.032;5.298;2023-05-10T03:43:11;13.20;99.90
20915;DHT22;10617;52.032;5.298;2023-05-10T03:47:13;13.20;99.90
20915;DHT22;10617;52.032;5.298;2023-05-10T03:51:15;13.30;99.90
20915;DHT22;10617;52.032;5.298;2023-05-10T03:55:17;13.30;99.90
20915;DHT22;10617;52.032;5.298;2023-05-10T03:59:19;13.30;99.90
20915;DHT22;10617;52.032;5.298;2023-05-10T04:03:20;13.30;99.90
20915;DHT22;10617;52.032;5.298;2023-05-10T04:07:22;13.30;99.90
20915;DHT22;10617;52.032;5.298;2023-05-10T04:11:24;13.30;99.90
20915;DHT22;10617;52.032;5.298;2023-05-10T04:15:26;13.30;99.90
20915;DHT22;10617;52.032;5.298;2023-05-10T04:19:31;13.30;99.90
20915;DHT22;10617;52.032;5.298;2023-05-10T04:23:32;13.30;99.90
20915;DHT22;10617;52.032;5.298;2023-05-10T04:27:34;13.40;99.90
20915;DHT22;10617;52.032;5.298;2023-05-10T04:31:36;13.30;99.90
20915;DHT22;10617;52.032;5.298;2023-05-10T04:35:37;13.30;99.90
20915;DHT22;10617;52.032;5.298;2023-05-10T04:39:41;13.30;99.90
20915;DHT22;10617;52.032;5.298;2023-05-10T04:43:43;13.30;99.90
20915;DHT22;10617;52.032;5.298;2023-05-10T04:47:44;13.30;99.90
20915;DHT22;10617;52.032;5.298;2023-05-10T04:51:46;13.30;99.90
20915;DHT22;10617;52.032;5.298;2023-05-10T04:55:47;13.40;99.90
20915;DHT22;10617;52.032;5.298;2023-05-10T04:59:50;13.30;99.90
20915;DHT22;10617;52.032;5.298;2023-05-10T05:03:52;13.30;99.90
20915;DHT22;10617;52.032;5.298;2023-05-10T05:07:54;13.40;99.90
20915;DHT22;10617;52.032;5.298;2023-05-10T05:11:56;13.40;99.90
20915;DHT22;10617;52.032;5.298;2023-05-10T05:15:59;13.40;99.90
20915;DHT22;10617;52.032;5.298;2023-05-10T05:20:01;13.40;99.90
20915;DHT22;10617;52.032;5.298;2023-05-10T05:24:03;13.50;99.90
20915;DHT22;10617;52.032;5.298;2023-05-10T05:28:05;13.50;99.90
20915;DHT22;10617;52.032;5.298;2023-05-10T05:32:06;13.40;99.90
20915;DHT22;10617;52.032;5.298;2023-05-10T05:36:09;13.40;99.90
20915;DHT22;10617;52.032;5.298;2023-05-10T05:40:14;13.40;99.90
20915;DHT22;10617;52.032;5.298;2023-05-10T05:44:16;13.50;99.90
20915;DHT22;10617;52.032;5.298;2023-05-10T05:48:17;13.40;99.90
20915;DHT22;10617;52.032;5.298;2023-05-10T05:52:19;13.40;99.90
20915;DHT22;10617;52.032;5.298;2023-05-10T05:56:21;13.50;99.90
20915;DHT22;10617;52.032;5.298;2023-05-10T06:00:25;13.50;99.90
20915;DHT22;10617;52.032;5.298;2023-05-10T06:04:27;13.40;99.90
20915;DHT22;10617;52.032;5.298;2023-05-10T06:08:29;13.40;99.90
20915;DHT22;10617;52.032;5.298;2023-05-10T06:12:31;13.40;99.90
20915;DHT22;10617;52.032;5.298;2023-05-10T06:16:32;13.40;99.90
20915;DHT22;10617;52.032;5.298;2023-05-10T06:20:34;13.40;99.90
20915;DHT22;10617;52.032;5.298;2023-05-10T06:24:36;13.40;99.90
20915;DHT22;10617;52.032;5.298;2023-05-10T06:28:37;13.40;99.90
20915;DHT22;10617;52.032;5.298;2023-05-10T06:32:40;13.40;99.90
20915;DHT22;10617;52.032;5.298;2023-05-10T06:36:42;13.40;99.90
20915;DHT22;10617;52.032;5.298;2023-05-10T06:40:43;13.40;99.90
20915;DHT22;10617;52.032;5.298;2023-05-10T06:44:45;13.40;99.90
20915;DHT22;10617;52.032;5.298;2023-05-10T06:48:47;13.50;99.90
20915;DHT22;10617;52.032;5.298;2023-05-10T06:52:48;13.60;99.90
20915;DHT22;10617;52.032;5.298;2023-05-10T06:56:52;13.60;99.90
20915;DHT22;10617;52.032;5.298;2023-05-10T07:00:54;13.70;99.90
20915;DHT22;10617;52.032;5.298;2023-05-10T07:05:02;13.70;99.90
20915;DHT22;10617;52.032;5.298;2023-05-10T07:09:04;13.70;99.90
20915;DHT22;10617;52.032;5.298;2023-05-10T07:13:06;13.80;99.90
20915;DHT22;10617;52.032;5.298;2023-05-10T07:17:08;13.80;99.90
20915;DHT22;10617;52.032;5.298;2023-05-10T07:21:09;13.80;99.90
20915;DHT22;10617;52.032;5.298;2023-05-10T07:25:11;13.90;99.90
20915;DHT22;10617;52.032;5.298;2023-05-10T07:29:13;14.00;99.90
20915;DHT22;10617;52.032;5.298;2023-05-10T07:33:15;14.00;99.90
20915;DHT22;10617;52.032;5.298;2023-05-10T07:37:17;14.10;99.90
20915;DHT22;10617;52.032;5.298;2023-05-10T07:41:18;14.10;99.90
20915;DHT22;10617;52.032;5.298;2023-05-10T07:45:20;14.10;99.90
20915;DHT22;10617;52.032;5.298;2023-05-10T07:49:22;14.20;99.90
20915;DHT22;10617;52.032;5.298;2023-05-10T07:53:26;14.20;99.90
20915;DHT22;10617;52.032;5.298;2023-05-10T07:57:27;14.20;99.90
20915;DHT22;10617;52.032;5.298;2023-05-10T08:01:29;14.10;99.90
20915;DHT22;10617;52.032;5.298;2023-05-10T08:05:31;14.10;99.90
20915;DHT22;10617;52.032;5.298;2023-05-10T08:09:35;14.10;99.90
20915;DHT22;10617;52.032;5.298;2023-05-10T08:13:37;14.10;99.90
20915;DHT22;10617;52.032;5.298;2023-05-10T08:17:38;14.20;99.90
20915;DHT22;10617;52.032;5.298;2023-05-10T08:21:40;14.30;99.90
20915;DHT22;10617;52.032;5.298;2023-05-10T08:25:43;14.30;99.90
20915;DHT22;10617;52.032;5.298;2023-05-10T08:29:45;14.40;99.90
20915;DHT22;10617;52.032;5.298;2023-05-10T08:33:50;14.40;99.90
20915;DHT22;10617;52.032;5.298;2023-05-10T08:37:53;14.40;99.90
20915;DHT22;10617;52.032;5.298;2023-05-10T08:52:03;14.60;99.90
20915;DHT22;10617;52.032;5.298;2023-05-10T08:56:05;14.60;99.90
20915;DHT22;10617;52.032;5.298;2023-05-10T09:00:07;14.60;99.90
20915;DHT22;10617;52.032;5.298;2023-05-10T09:04:09;14.60;99.90
20915;DHT22;10617;52.032;5.298;2023-05-10T09:08:11;14.70;99.90
20915;DHT22;10617;52.032;5.298;2023-05-10T09:12:14;14.70;99.90
20915;DHT22;10617;52.032;5.298;2023-05-10T09:16:17;14.80;99.90
20915;DHT22;10617;52.032;5.298;2023-05-10T09:20:22;14.80;99.90
20915;DHT22;10617;52.032;5.298;2023-05-10T09:24:27;14.90;99.90
20915;DHT22;10617;52.032;5.298;2023-05-10T09:28:31;14.90;99.90
20915;DHT22;10617;52.032;5.298;2023-05-10T09:32:45;15.00;99.90
20915;DHT22;10617;52.032;5.298;2023-05-10T09:36:55;15.00;99.90
20915;DHT22;10617;52.032;5.298;2023-05-10T09:40:57;15.00;99.90
20915;DHT22;10617;52.032;5.298;2023-05-10T09:45:05;15.10;99.90
20915;DHT22;10617;52.032;5.298;2023-05-10T09:49:08;15.10;99.90
20915;DHT22;10617;52.032;5.298;2023-05-10T09:53:09;15.10;99.90
20915;DHT22;10617;52.032;5.298;2023-05-10T09:57:18;15.20;99.90
20915;DHT22;10617;52.032;5.298;2023-05-10T10:01:21;15.30;99.90
20915;DHT22;10617;52.032;5.298;2023-05-10T10:05:33;15.30;99.90
20915;DHT22;10617;52.032;5.298;2023-05-10T10:09:35;15.40;99.90
20915;DHT22;10617;52.032;5.298;2023-05-10T10:13:37;15.50;99.90
20915;DHT22;10617;52.032;5.298;2023-05-10T10:17:38;15.60;99.90
20915;DHT22;10617;52.032;5.298;2023-05-10T10:21:41;15.60;99.90
20915;DHT22;10617;52.032;5.298;2023-05-10T10:25:42;15.70;99.90
20915;DHT22;10617;52.032;5.298;2023-05-10T10:30:00;15.70;99.90
20915;DHT22;10617;52.032;5.298;2023-05-10T10:34:06;15.70;99.90
20915;DHT22;10617;52.032;5.298;2023-05-10T10:38:08;15.70;99.90
20915;DHT22;10617;52.032;5.298;2023-05-10T10:42:10;15.60;99.90
20915;DHT22;10617;52.032;5.298;2023-05-10T10:46:16;15.60;99.90
20915;DHT22;10617;52.032;5.298;2023-05-10T10:50:18;15.50;99.90
20915;DHT22;10617;52.032;5.298;2023-05-10T10:54:26;15.50;99.90
20915;DHT22;10617;52.032;5.298;2023-05-10T10:58:29;15.70;99.90
20915;DHT22;10617;52.032;5.298;2023-05-10T11:02:33;15.80;99.90
20915;DHT22;10617;52.032;5.298;2023-05-10T11:06:35;16.00;99.90
20915;DHT22;10617;52.032;5.298;2023-05-10T11:10:37;16.10;99.90
20915;DHT22;10617;52.032;5.298;2023-05-10T11:14:39;16.30;99.90
20915;DHT22;10617;52.032;5.298;2023-05-10T11:18:51;16.40;99.90
20915;DHT22;10617;52.032;5.298;2023-05-10T11:22:53;16.50;99.90
20915;DHT22;10617;52.032;5.298;2023-05-10T11:26:55;16.80;99.90
20915;DHT22;10617;52.032;5.298;2023-05-10T11:30:57;17.00;99.90
20915;DHT22;10617;52.032;5.298;2023-05-10T11:34:59;17.40;99.90
20915;DHT22;10617;52.032;5.298;2023-05-10T11:39:01;17.60;99.90
20915;DHT22;10617;52.032;5.298;2023-05-10T11:43:04;17.60;99.90
20915;DHT22;10617;52.032;5.298;2023-05-10T11:47:05;17.50;99.90
20915;DHT22;10617;52.032;5.298;2023-05-10T11:51:07;17.40;99.90
20915;DHT22;10617;52.032;5.298;2023-05-10T11:55:09;17.40;99.90
20915;DHT22;10617;52.032;5.298;2023-05-10T11:59:13;17.20;99.90
20915;DHT22;10617;52.032;5.298;2023-05-10T12:03:15;17.20;99.90
20915;DHT22;10617;52.032;5.298;2023-05-10T12:07:17;17.10;99.90
20915;DHT22;10617;52.032;5.298;2023-05-10T12:11:19;17.10;99.90
20915;DHT22;10617;52.032;5.298;2023-05-10T12:15:22;17.10;99.90
20915;DHT22;10617;52.032;5.298;2023-05-10T12:19:24;17.10;99.90
20915;DHT22;10617;52.032;5.298;2023-05-10T12:23:26;17.00;99.90
20915;DHT22;10617;52.032;5.298;2023-05-10T12:27:31;16.80;99.90
20915;DHT22;10617;52.032;5.298;2023-05-10T12:35:58;16.40;99.90
20915;DHT22;10617;52.032;5.298;2023-05-10T12:40:00;16.20;99.90
20915;DHT22;10617;52.032;5.298;2023-05-10T12:44:02;16.10;99.90
20915;DHT22;10617;52.032;5.298;2023-05-10T12:48:03;15.90;99.90
20915;DHT22;10617;52.032;5.298;2023-05-10T12:52:05;15.80;99.90
20915;DHT22;10617;52.032;5.298;2023-05-10T12:56:07;15.70;99.90
20915;DHT22;10617;52.032;5.298;2023-05-10T13:00:08;15.60;99.90
20915;DHT22;10617;52.032;5.298;2023-05-10T13:04:10;15.60;99.90
20915;DHT22;10617;52.032;5.298;2023-05-10T13:08:12;15.60;99.90
20915;DHT22;10617;52.032;5.298;2023-05-10T13:12:14;15.60;99.90
20915;DHT22;10617;52.032;5.298;2023-05-10T13:16:15;15.60;99.90
20915;DHT22;10617;52.032;5.298;2023-05-10T13:20:17;15.50;99.90
20915;DHT22;10617;52.032;5.298;2023-05-10T13:24:19;15.40;99.90
20915;DHT22;10617;52.032;5.298;2023-05-10T13:28:20;15.40;99.90
20915;DHT22;10617;52.032;5.298;2023-05-10T13:32:22;15.30;99.90
20915;DHT22;10617;52.032;5.298;2023-05-10T13:36:24;15.30;99.90
20915;DHT22;10617;52.032;5.298;2023-05-10T13:40:25;15.30;99.90
20915;DHT22;10617;52.032;5.298;2023-05-10T13:44:27;15.40;99.90
20915;DHT22;10617;52.032;5.298;2023-05-10T13:48:28;15.40;99.90
20915;DHT22;10617;52.032;5.298;2023-05-10T13:52:30;15.50;99.90
20915;DHT22;10617;52.032;5.298;2023-05-10T13:56:32;15.50;99.90
20915;DHT22;10617;52.032;5.298;2023-05-10T14:00:33;15.60;99.90
20915;DHT22;10617;52.032;5.298;2023-05-10T14:04:35;15.60;99.90
20915;DHT22;10617;52.032;5.298;2023-05-10T14:08:36;15.60;99.90
20915;DHT22;10617;52.032;5.298;2023-05-10T14:12:38;15.60;99.90
20915;DHT22;10617;52.032;5.298;2023-05-10T14:16:41;15.70;99.90
20915;DHT22;10617;52.032;5.298;2023-05-10T14:20:43;15.70;99.90
20915;DHT22;10617;52.032;5.298;2023-05-10T14:24:45;15.70;99.90
20915;DHT22;10617;52.032;5.298;2023-05-10T14:28:48;15.70;99.90
20915;DHT22;10617;52.032;5.298;2023-05-10T14:32:49;15.70;99.90
20915;DHT22;10617;52.032;5.298;2023-05-10T14:36:51;15.70;99.90
20915;DHT22;10617;52.032;5.298;2023-05-10T14:40:53;15.80;99.90
20915;DHT22;10617;52.032;5.298;2023-05-10T14:44:54;15.80;99.90
20915;DHT22;10617;52.032;5.298;2023-05-10T14:48:56;15.90;99.90
20915;DHT22;10617;52.032;5.298;2023-05-10T14:52:58;16.10;99.90
20915;DHT22;10617;52.032;5.298;2023-05-10T14:57:00;16.20;99.90
20915;DHT22;10617;52.032;5.298;2023-05-10T15:01:02;16.30;99.90
20915;DHT22;10617;52.032;5.298;2023-05-10T15:05:04;16.40;99.90
20915;DHT22;10617;52.032;5.298;2023-05-10T15:09:05;16.40;99.90
20915;DHT22;10617;52.032;5.298;2023-05-10T15:13:07;16.40;99.90
20915;DHT22;10617;52.032;5.298;2023-05-10T15:17:09;16.40;99.90
20915;DHT22;10617;52.032;5.298;2023-05-10T15:21:11;16.50;99.90
20915;DHT22;10617;52.032;5.298;2023-05-10T15:25:13;16.50;99.90
20915;DHT22;10617;52.032;5.298;2023-05-10T15:29:16;16.50;99.90
20915;DHT22;10617;52.032;5.298;2023-05-10T15:33:21;16.60;99.90
20915;DHT22;10617;52.032;5.298;2023-05-10T15:37:23;16.60;99.90
20915;DHT22;10617;52.032;5.298;2023-05-10T15:41:25;16.60;99.90
20915;DHT22;10617;52.032;5.298;2023-05-10T15:45:26;16.60;99.90
20915;DHT22;10617;52.032;5.298;2023-05-10T15:49:28;16.60;99.90
20915;DHT22;10617;52.032;5.298;2023-05-10T15:53:30;16.50;99.90
20915;DHT22;10617;52.032;5.298;2023-05-10T15:57:31;16.50;99.90
20915;DHT22;10617;52.032;5.298;2023-05-10T16:01:34;16.70;99.90
20915;DHT22;10617;52.032;5.298;2023-05-10T16:05:36;16.70;99.90
20915;DHT22;10617;52.032;5.298;2023-05-10T16:09:37;16.70;99.90
20915;DHT22;10617;52.032;5.298;2023-05-10T16:13:39;16.80;99.90
20915;DHT22;10617;52.032;5.298;2023-05-10T16:17:41;16.80;99.90
20915;DHT22;10617;52.032;5.298;2023-05-10T16:21:43;16.80;99.90
20915;DHT22;10617;52.032;5.298;2023-05-10T16:25:44;16.80;99.90
20915;DHT22;10617;52.032;5.298;2023-05-10T16:29:46;16.90;99.90
20915;DHT22;10617;52.032;5.298;2023-05-10T16:33:48;16.90;99.90
20915;DHT22;10617;52.032;5.298;2023-05-10T16:37:50;16.90;99.90
20915;DHT22;10617;52.032;5.298;2023-05-10T16:41:51;16.90;99.90
20915;DHT22;10617;52.032;5.298;2023-05-10T16:45:53;17.10;99.90
20915;DHT22;10617;52.032;5.298;2023-05-10T16:49:55;17.40;99.90
20915;DHT22;10617;52.032;5.298;2023-05-10T16:53:56;17.60;99.90
20915;DHT22;10617;52.032;5.298;2023-05-10T16:57:58;18.30;99.90
20915;DHT22;10617;52.032;5.298;2023-05-10T17:02:01;19.20;99.90
20915;DHT22;10617;52.032;5.298;2023-05-10T17:06:04;19.70;99.90
20915;DHT22;10617;52.032;5.298;2023-05-10T17:10:05;19.90;99.90
20915;DHT22;10617;52.032;5.298;2023-05-10T17:14:07;19.70;99.90
20915;DHT22;10617;52.032;5.298;2023-05-10T17:18:10;19.30;99.90
20915;DHT22;10617;52.032;5.298;2023-05-10T17:22:12;19.30;99.90
20915;DHT22;10617;52.032;5.298;2023-05-10T17:26:14;19.20;99.90
20915;DHT22;10617;52.032;5.298;2023-05-10T17:30:16;19.10;99.90
20915;DHT22;10617;52.032;5.298;2023-05-10T17:34:22;19.00;99.90
20915;DHT22;10617;52.032;5.298;2023-05-10T17:38:24;18.90;99.90
20915;DHT22;10617;52.032;5.298;2023-05-10T17:42:26;18.80;99.90
20915;DHT22;10617;52.032;5.298;2023-05-10T17:46:28;18.60;99.90
20915;DHT22;10617;52.032;5.298;2023-05-10T17:50:29;18.40;99.90
20915;DHT22;10617;52.032;5.298;2023-05-10T17:54:33;18.30;99.90
20915;DHT22;10617;52.032;5.298;2023-05-10T17:58:34;18.10;99.90
20915;DHT22;10617;52.032;5.298;2023-05-10T18:02:38;18.00;99.90
20915;DHT22;10617;52.032;5.298;2023-05-10T18:06:40;17.80;99.90
20915;DHT22;10617;52.032;5.298;2023-05-10T18:10:42;17.80;99.90
20915;DHT22;10617;52.032;5.298;2023-05-10T18:14:43;17.70;99.90
20915;DHT22;10617;52.032;5.298;2023-05-10T18:18:45;17.60;99.90
20915;DHT22;10617;52.032;5.298;2023-05-10T18:22:47;17.50;99.90
20915;DHT22;10617;52.032;5.298;2023-05-10T18:26:48;17.40;99.90
20915;DHT22;10617;52.032;5.298;2023-05-10T18:30:50;17.30;99.90
20915;DHT22;10617;52.032;5.298;2023-05-10T18:34:52;17.20;99.90
20915;DHT22;10617;52.032;5.298;2023-05-10T18:38:56;17.10;99.90
20915;DHT22;10617;52.032;5.298;2023-05-10T18:42:58;17.10;99.90
20915;DHT22;10617;52.032;5.298;2023-05-10T18:47:00;17.10;99.90
20915;DHT22;10617;52.032;5.298;2023-05-10T18:51:01;17.00;99.90
20915;DHT22;10617;52.032;5.298;2023-05-10T18:55:03;16.90;99.90
20915;DHT22;10617;52.032;5.298;2023-05-10T18:59:05;16.90;99.90
20915;DHT22;10617;52.032;5.298;2023-05-10T19:03:07;16.80;99.90
20915;DHT22;10617;52.032;5.298;2023-05-10T19:07:08;16.80;99.90
20915;DHT22;10617;52.032;5.298;2023-05-10T19:16:16;16.70;99.90
20915;DHT22;10617;52.032;5.298;2023-05-10T19:20:23;16.60;99.90
20915;DHT22;10617;52.032;5.298;2023-05-10T19:24:25;16.60;99.90
20915;DHT22;10617;52.032;5.298;2023-05-10T19:28:27;16.50;99.90
20915;DHT22;10617;52.032;5.298;2023-05-10T19:32:29;16.50;99.90
20915;DHT22;10617;52.032;5.298;2023-05-10T19:36:30;16.50;99.90
20915;DHT22;10617;52.032;5.298;2023-05-10T19:40:33;16.40;99.90
20915;DHT22;10617;52.032;5.298;2023-05-10T19:44:35;16.40;99.90
20915;DHT22;10617;52.032;5.298;2023-05-10T19:48:36;16.30;99.90
20915;DHT22;10617;52.032;5.298;2023-05-10T19:52:39;16.30;99.90
20915;DHT22;10617;52.032;5.298;2023-05-10T19:56:41;16.20;99.90
20915;DHT22;10617;52.032;5.298;2023-05-10T20:00:42;16.20;99.90
20915;DHT22;10617;52.032;5.298;2023-05-10T20:04:44;16.20;99.90
20915;DHT22;10617;52.032;5.298;2023-05-10T20:08:45;16.10;99.90
20915;DHT22;10617;52.032;5.298;2023-05-10T20:12:48;16.00;99.90
20915;DHT22;10617;52.032;5.298;2023-05-10T20:16:52;15.90;99.90
20915;DHT22;10617;52.032;5.298;2023-05-10T20:20:56;15.80;99.90
20915;DHT22;10617;52.032;5.298;2023-05-10T20:24:57;15.80;99.90
20915;DHT22;10617;52.032;5.298;2023-05-10T20:28:59;15.80;99.90
20915;DHT22;10617;52.032;5.298;2023-05-10T20:33:01;15.80;99.90
20915;DHT22;10617;52.032;5.298;2023-05-10T20:37:04;15.80;99.90
20915;DHT22;10617;52.032;5.298;2023-05-10T20:41:06;15.80;99.90
20915;DHT22;10617;52.032;5.298;2023-05-10T20:45:08;15.70;99.90
20915;DHT22;10617;52.032;5.298;2023-05-10T20:49:09;15.70;99.90
20915;DHT22;10617;52.032;5.298;2023-05-10T20:53:11;15.70;99.90
20915;DHT22;10617;52.032;5.298;2023-05-10T20:57:14;15.70;99.90
20915;DHT22;10617;52.032;5.298;2023-05-10T21:01:16;15.60;99.90
20915;DHT22;10617;52.032;5.298;2023-05-10T21:05:18;15.60;99.90
20915;DHT22;10617;52.032;5.298;2023-05-10T21:09:19;15.60;99.90
20915;DHT22;10617;52.032;5.298;2023-05-10T21:13:21;15.60;99.90
20915;DHT22;10617;52.032;5.298;2023-05-10T21:17:23;15.50;99.90
20915;DHT22;10617;52.032;5.298;2023-05-10T21:21:25;15.60;99.90
20915;DHT22;10617;52.032;5.298;2023-05-10T21:25:26;15.50;99.90
20915;DHT22;10617;52.032;5.298;2023-05-10T21:29:28;15.50;99.90
20915;DHT22;10617;52.032;5.298;2023-05-10T21:33:29;15.40;99.90
20915;DHT22;10617;52.032;5.298;2023-05-10T21:37:31;15.40;99.90
20915;DHT22;10617;52.032;5.298;2023-05-10T21:41:33;15.40;99.90
20915;DHT22;10617;52.032;5.298;2023-05-10T21:45:34;15.30;99.90
20915;DHT22;10617;52.032;5.298;2023-05-10T21:49:36;15.20;99.90
20915;DHT22;10617;52.032;5.298;2023-05-10T21:53:38;15.20;99.90
20915;DHT22;10617;52.032;5.298;2023-05-10T21:57:40;15.20;99.90
20915;DHT22;10617;52.032;5.298;2023-05-10T22:01:42;15.10;99.90
20915;DHT22;10617;52.032;5.298;2023-05-10T22:05:44;15.10;99.90
20915;DHT22;10617;52.032;5.298;2023-05-10T22:09:48;15.00;99.90
20915;DHT22;10617;52.032;5.298;2023-05-10T22:13:49;15.00;99.90
20915;DHT22;10617;52.032;5.298;2023-05-10T22:17:51;14.90;99.90
20915;DHT22;10617;52.032;5.298;2023-05-10T22:21:52;14.90;99.90
20915;DHT22;10617;52.032;5.298;2023-05-10T22:25:57;14.90;99.90
20915;DHT22;10617;52.032;5.298;2023-05-10T22:29:59;14.90;99.90
20915;DHT22;10617;52.032;5.298;2023-05-10T22:34:02;14.90;99.90
20915;DHT22;10617;52.032;5.298;2023-05-10T22:38:03;14.90;99.90
20915;DHT22;10617;52.032;5.298;2023-05-10T22:42:05;14.90;99.90
20915;DHT22;10617;52.032;5.298;2023-05-10T22:46:07;14.80;99.90
20915;DHT22;10617;52.032;5.298;2023-05-10T22:50:08;14.80;99.90
20915;DHT22;10617;52.032;5.298;2023-05-10T22:54:10;14.80;99.90
20915;DHT22;10617;52.032;5.298;2023-05-10T22:58:12;14.80;99.90
20915;DHT22;10617;52.032;5.298;2023-05-10T23:02:14;14.80;99.90
20915;DHT22;10617;52.032;5.298;2023-05-10T23:06:15;14.80;99.90
20915;DHT22;10617;52.032;5.298;2023-05-10T23:10:17;14.80;99.90
20915;DHT22;10617;52.032;5.298;2023-05-10T23:14:20;14.70;99.90
20915;DHT22;10617;52.032;5.298;2023-05-10T23:18:21;14.70;99.90
20915;DHT22;10617;52.032;5.298;2023-05-10T23:22:23;14.60;99.90
20915;DHT22;10617;52.032;5.298;2023-05-10T23:26:25;14.60;99.90
20915;DHT22;10617;52.032;5.298;2023-05-10T23:30:29;14.60;99.90
20915;DHT22;10617;52.032;5.298;2023-05-10T23:34:31;14.60;99.90
20915;DHT22;10617;52.032;5.298;2023-05-10T23:38:32;14.60;99.90
20915;DHT22;10617;52.032;5.298;2023-05-10T23:42:34;14.60;99.90
20915;DHT22;10617;52.032;5.298;2023-05-10T23:46:36;14.60;99.90
20915;DHT22;10617;52.032;5.298;2023-05-10T23:50:42;14.60;99.90
20915;DHT22;10617;52.032;5.298;2023-05-10T23:54:44;14.60;99.90
20915;DHT22;10617;52.032;5.298;2023-05-10T23:58:46;14.60;99.90
